Terminal Aerodrome Forecast
Issued by NWS

Home | Current Version | Previous Version | Text Only | Print | Product List | Glossary On
Versions: 1 2 3 4 5 6 7 8 9 10 11 12 13 14 15 16 17 18 19
000
FTUS46 KLOX 210500
TAFSBP
TAF
KSBP 210534Z 2106/2206 31006KT 6SM BR OVC015
     FM210800 VRB03KT 6SM -DZ BR BKN010 OVC020
     FM211600 27005KT P6SM BKN020
     FM211900 28009KT P6SM BKN025 BKN050
     FM220300 31008KT P6SM BKN012 OVC025=

USA.gov is the U.S. government's official web portal to all federal, state and local government web resources and services.